sensor_id;sensor_type;location;lat;lon;timestamp;P1;durP1;ratioP1;P2;durP2;ratioP2
18933;SDS011;9599;53.706;10.384;2023-03-23T00:02:19;7.43;;;5.17;;
18933;SDS011;9599;53.706;10.384;2023-03-23T00:04:49;9.73;;;5.77;;
18933;SDS011;9599;53.706;10.384;2023-03-23T00:07:18;11.53;;;5.70;;
18933;SDS011;9599;53.706;10.384;2023-03-23T00:09:46;10.97;;;6.23;;
18933;SDS011;9599;53.706;10.384;2023-03-23T00:12:18;9.73;;;6.17;;
18933;SDS011;9599;53.706;10.384;2023-03-23T00:14:46;9.30;;;5.93;;
18933;SDS011;9599;53.706;10.384;2023-03-23T00:17:14;9.87;;;6.43;;
18933;SDS011;9599;53.706;10.384;2023-03-23T00:19:40;11.40;;;6.10;;
18933;SDS011;9599;53.706;10.384;2023-03-23T00:22:12;8.20;;;6.43;;
18933;SDS011;9599;53.706;10.384;2023-03-23T00:24:42;9.33;;;6.10;;
18933;SDS011;9599;53.706;10.384;2023-03-23T00:27:09;9.30;;;6.70;;
18933;SDS011;9599;53.706;10.384;2023-03-23T00:29:41;11.87;;;6.87;;
18933;SDS011;9599;53.706;10.384;2023-03-23T00:32:10;8.63;;;6.27;;
18933;SDS011;9599;53.706;10.384;2023-03-23T00:34:39;11.57;;;7.17;;
18933;SDS011;9599;53.706;10.384;2023-03-23T00:37:08;10.17;;;7.17;;
18933;SDS011;9599;53.706;10.384;2023-03-23T00:39:37;10.43;;;7.17;;
18933;SDS011;9599;53.706;10.384;2023-03-23T00:42:12;11.70;;;7.20;;
18933;SDS011;9599;53.706;10.384;2023-03-23T00:44:40;11.90;;;7.13;;
18933;SDS011;9599;53.706;10.384;2023-03-23T00:47:08;11.20;;;7.50;;
18933;SDS011;9599;53.706;10.384;2023-03-23T00:49:37;11.17;;;7.73;;
18933;SDS011;9599;53.706;10.384;2023-03-23T00:52:06;12.43;;;7.30;;
18933;SDS011;9599;53.706;10.384;2023-03-23T00:54:33;11.33;;;7.67;;
18933;SDS011;9599;53.706;10.384;2023-03-23T00:57:03;16.17;;;8.67;;
18933;SDS011;9599;53.706;10.384;2023-03-23T00:59:33;12.27;;;8.50;;
18933;SDS011;9599;53.706;10.384;2023-03-23T01:02:00;13.37;;;8.83;;
18933;SDS011;9599;53.706;10.384;2023-03-23T01:04:27;12.50;;;9.07;;
18933;SDS011;9599;53.706;10.384;2023-03-23T01:06:57;14.50;;;9.23;;
18933;SDS011;9599;53.706;10.384;2023-03-23T01:09:25;17.13;;;10.00;;
18933;SDS011;9599;53.706;10.384;2023-03-23T01:11:52;16.20;;;9.37;;
18933;SDS011;9599;53.706;10.384;2023-03-23T01:14:20;15.80;;;9.93;;
18933;SDS011;9599;53.706;10.384;2023-03-23T01:16:50;17.17;;;10.43;;
18933;SDS011;9599;53.706;10.384;2023-03-23T01:19:18;15.37;;;10.33;;
18933;SDS011;9599;53.706;10.384;2023-03-23T01:21:45;16.73;;;10.17;;
18933;SDS011;9599;53.706;10.384;2023-03-23T01:24:11;14.93;;;10.30;;
18933;SDS011;9599;53.706;10.384;2023-03-23T01:26:39;14.90;;;10.40;;
18933;SDS011;9599;53.706;10.384;2023-03-23T01:29:06;16.97;;;11.30;;
18933;SDS011;9599;53.706;10.384;2023-03-23T01:31:33;16.13;;;11.00;;
18933;SDS011;9599;53.706;10.384;2023-03-23T01:34:04;16.60;;;11.17;;
18933;SDS011;9599;53.706;10.384;2023-03-23T01:36:31;16.67;;;10.70;;
18933;SDS011;9599;53.706;10.384;2023-03-23T01:39:01;16.73;;;10.67;;
18933;SDS011;9599;53.706;10.384;2023-03-23T01:41:30;15.93;;;10.57;;
18933;SDS011;9599;53.706;10.384;2023-03-23T01:44:01;15.27;;;10.40;;
18933;SDS011;9599;53.706;10.384;2023-03-23T01:46:43;15.97;;;10.97;;
18933;SDS011;9599;53.706;10.384;2023-03-23T01:49:12;18.13;;;11.20;;
18933;SDS011;9599;53.706;10.384;2023-03-23T01:51:43;18.03;;;10.90;;
18933;SDS011;9599;53.706;10.384;2023-03-23T01:54:15;16.77;;;10.87;;
18933;SDS011;9599;53.706;10.384;2023-03-23T01:56:50;17.57;;;11.30;;
18933;SDS011;9599;53.706;10.384;2023-03-23T01:59:21;17.43;;;11.33;;
18933;SDS011;9599;53.706;10.384;2023-03-23T02:02:03;18.07;;;11.03;;
18933;SDS011;9599;53.706;10.384;2023-03-23T02:04:32;18.27;;;11.23;;
18933;SDS011;9599;53.706;10.384;2023-03-23T02:07:00;17.40;;;10.90;;
18933;SDS011;9599;53.706;10.384;2023-03-23T02:09:29;17.97;;;11.57;;
18933;SDS011;9599;53.706;10.384;2023-03-23T02:11:56;18.03;;;11.03;;
18933;SDS011;9599;53.706;10.384;2023-03-23T02:14:23;17.03;;;11.37;;
18933;SDS011;9599;53.706;10.384;2023-03-23T02:16:53;19.07;;;10.90;;
18933;SDS011;9599;53.706;10.384;2023-03-23T02:19:30;20.77;;;11.53;;
18933;SDS011;9599;53.706;10.384;2023-03-23T02:25:25;17.83;;;10.87;;
18933;SDS011;9599;53.706;10.384;2023-03-23T02:28:05;17.90;;;11.03;;
18933;SDS011;9599;53.706;10.384;2023-03-23T02:30:52;18.60;;;10.87;;
18933;SDS011;9599;53.706;10.384;2023-03-23T02:33:36;17.20;;;11.47;;
18933;SDS011;9599;53.706;10.384;2023-03-23T02:36:12;18.70;;;11.27;;
18933;SDS011;9599;53.706;10.384;2023-03-23T02:38:48;16.73;;;10.80;;
18933;SDS011;9599;53.706;10.384;2023-03-23T02:41:22;16.43;;;10.87;;
18933;SDS011;9599;53.706;10.384;2023-03-23T02:43:53;17.57;;;10.60;;
18933;SDS011;9599;53.706;10.384;2023-03-23T02:46:23;18.03;;;11.00;;
18933;SDS011;9599;53.706;10.384;2023-03-23T02:48:52;17.00;;;11.40;;
18933;SDS011;9599;53.706;10.384;2023-03-23T02:51:22;16.53;;;10.73;;
18933;SDS011;9599;53.706;10.384;2023-03-23T02:53:50;15.57;;;11.43;;
18933;SDS011;9599;53.706;10.384;2023-03-23T02:56:19;16.23;;;10.57;;
18933;SDS011;9599;53.706;10.384;2023-03-23T02:58:51;16.53;;;11.13;;
18933;SDS011;9599;53.706;10.384;2023-03-23T03:04:27;15.90;;;11.20;;
18933;SDS011;9599;53.706;10.384;2023-03-23T03:07:02;16.57;;;10.57;;
18933;SDS011;9599;53.706;10.384;2023-03-23T03:09:40;17.57;;;11.33;;
18933;SDS011;9599;53.706;10.384;2023-03-23T03:12:15;15.13;;;10.80;;
18933;SDS011;9599;53.706;10.384;2023-03-23T03:14:50;15.43;;;10.70;;
18933;SDS011;9599;53.706;10.384;2023-03-23T03:17:25;16.20;;;11.00;;
18933;SDS011;9599;53.706;10.384;2023-03-23T03:19:54;16.07;;;10.67;;
18933;SDS011;9599;53.706;10.384;2023-03-23T03:22:25;18.17;;;11.80;;
18933;SDS011;9599;53.706;10.384;2023-03-23T03:24:55;17.87;;;11.40;;
18933;SDS011;9599;53.706;10.384;2023-03-23T03:27:24;16.03;;;10.23;;
18933;SDS011;9599;53.706;10.384;2023-03-23T03:30:20;16.20;;;11.23;;
18933;SDS011;9599;53.706;10.384;2023-03-23T03:32:51;17.43;;;11.03;;
18933;SDS011;9599;53.706;10.384;2023-03-23T03:35:22;17.57;;;11.33;;
18933;SDS011;9599;53.706;10.384;2023-03-23T03:37:50;17.60;;;11.03;;
18933;SDS011;9599;53.706;10.384;2023-03-23T03:40:19;17.00;;;11.60;;
18933;SDS011;9599;53.706;10.384;2023-03-23T03:42:49;19.67;;;11.53;;
18933;SDS011;9599;53.706;10.384;2023-03-23T03:45:17;16.17;;;11.70;;
18933;SDS011;9599;53.706;10.384;2023-03-23T03:47:45;18.50;;;11.70;;
18933;SDS011;9599;53.706;10.384;2023-03-23T03:50:13;18.00;;;12.23;;
18933;SDS011;9599;53.706;10.384;2023-03-23T03:52:41;17.50;;;12.17;;
18933;SDS011;9599;53.706;10.384;2023-03-23T03:55:08;19.00;;;12.20;;
18933;SDS011;9599;53.706;10.384;2023-03-23T03:57:39;17.80;;;11.80;;
18933;SDS011;9599;53.706;10.384;2023-03-23T04:00:42;19.17;;;11.77;;
18933;SDS011;9599;53.706;10.384;2023-03-23T04:03:15;17.73;;;12.53;;
18933;SDS011;9599;53.706;10.384;2023-03-23T04:05:53;17.33;;;11.90;;
18933;SDS011;9599;53.706;10.384;2023-03-23T04:08:22;17.97;;;12.33;;
18933;SDS011;9599;53.706;10.384;2023-03-23T04:10:49;17.50;;;11.87;;
18933;SDS011;9599;53.706;10.384;2023-03-23T04:13:18;17.90;;;12.37;;
18933;SDS011;9599;53.706;10.384;2023-03-23T04:16:04;21.13;;;12.80;;
18933;SDS011;9599;53.706;10.384;2023-03-23T04:18:33;18.37;;;12.50;;
18933;SDS011;9599;53.706;10.384;2023-03-23T04:21:02;21.20;;;12.30;;
18933;SDS011;9599;53.706;10.384;2023-03-23T04:23:31;18.53;;;12.27;;
18933;SDS011;9599;53.706;10.384;2023-03-23T04:26:02;18.93;;;12.33;;
18933;SDS011;9599;53.706;10.384;2023-03-23T04:28:36;17.80;;;12.40;;
18933;SDS011;9599;53.706;10.384;2023-03-23T04:31:22;19.23;;;12.80;;
18933;SDS011;9599;53.706;10.384;2023-03-23T04:33:55;19.67;;;12.63;;
18933;SDS011;9599;53.706;10.384;2023-03-23T04:36:28;19.07;;;12.93;;
18933;SDS011;9599;53.706;10.384;2023-03-23T04:39:01;20.90;;;13.87;;
18933;SDS011;9599;53.706;10.384;2023-03-23T04:41:33;20.67;;;13.77;;
18933;SDS011;9599;53.706;10.384;2023-03-23T04:44:11;19.27;;;13.43;;
18933;SDS011;9599;53.706;10.384;2023-03-23T04:46:46;19.70;;;12.87;;
18933;SDS011;9599;53.706;10.384;2023-03-23T04:49:16;23.37;;;13.57;;
18933;SDS011;9599;53.706;10.384;2023-03-23T04:51:48;21.40;;;13.27;;
18933;SDS011;9599;53.706;10.384;2023-03-23T04:54:35;19.70;;;13.93;;
18933;SDS011;9599;53.706;10.384;2023-03-23T04:57:03;21.63;;;13.90;;
18933;SDS011;9599;53.706;10.384;2023-03-23T04:59:32;22.80;;;13.50;;
18933;SDS011;9599;53.706;10.384;2023-03-23T05:02:27;19.47;;;13.83;;
18933;SDS011;9599;53.706;10.384;2023-03-23T05:04:57;20.23;;;14.20;;
18933;SDS011;9599;53.706;10.384;2023-03-23T05:07:26;20.27;;;13.80;;
18933;SDS011;9599;53.706;10.384;2023-03-23T05:09:56;20.93;;;13.63;;
18933;SDS011;9599;53.706;10.384;2023-03-23T05:12:28;21.63;;;14.23;;
18933;SDS011;9599;53.706;10.384;2023-03-23T05:14:59;19.50;;;14.23;;
18933;SDS011;9599;53.706;10.384;2023-03-23T05:17:29;17.60;;;13.93;;
18933;SDS011;9599;53.706;10.384;2023-03-23T05:20:00;20.77;;;13.60;;
18933;SDS011;9599;53.706;10.384;2023-03-23T05:22:40;19.07;;;13.30;;
18933;SDS011;9599;53.706;10.384;2023-03-23T05:25:13;20.83;;;13.23;;
18933;SDS011;9599;53.706;10.384;2023-03-23T05:27:44;19.30;;;13.77;;
18933;SDS011;9599;53.706;10.384;2023-03-23T05:30:21;17.67;;;13.07;;
18933;SDS011;9599;53.706;10.384;2023-03-23T05:32:48;20.03;;;13.47;;
18933;SDS011;9599;53.706;10.384;2023-03-23T05:35:29;18.70;;;13.07;;
18933;SDS011;9599;53.706;10.384;2023-03-23T05:37:57;18.53;;;12.93;;
18933;SDS011;9599;53.706;10.384;2023-03-23T05:40:25;18.77;;;12.97;;
18933;SDS011;9599;53.706;10.384;2023-03-23T05:42:58;20.10;;;13.83;;
18933;SDS011;9599;53.706;10.384;2023-03-23T05:45:37;19.27;;;13.37;;
18933;SDS011;9599;53.706;10.384;2023-03-23T05:48:05;19.93;;;13.80;;
18933;SDS011;9599;53.706;10.384;2023-03-23T05:50:32;20.17;;;13.67;;
18933;SDS011;9599;53.706;10.384;2023-03-23T05:53:00;23.27;;;14.87;;
18933;SDS011;9599;53.706;10.384;2023-03-23T05:55:32;18.20;;;14.17;;
18933;SDS011;9599;53.706;10.384;2023-03-23T05:58:15;16.67;;;12.90;;
18933;SDS011;9599;53.706;10.384;2023-03-23T06:00:44;17.97;;;13.27;;
18933;SDS011;9599;53.706;10.384;2023-03-23T06:03:23;18.17;;;12.57;;
18933;SDS011;9599;53.706;10.384;2023-03-23T06:05:59;17.17;;;12.97;;
18933;SDS011;9599;53.706;10.384;2023-03-23T06:08:36;18.20;;;12.80;;
18933;SDS011;9599;53.706;10.384;2023-03-23T06:11:06;16.40;;;11.83;;
18933;SDS011;9599;53.706;10.384;2023-03-23T06:13:40;14.87;;;10.73;;
18933;SDS011;9599;53.706;10.384;2023-03-23T06:16:09;15.80;;;11.13;;
18933;SDS011;9599;53.706;10.384;2023-03-23T06:18:54;15.67;;;10.77;;
18933;SDS011;9599;53.706;10.384;2023-03-23T06:21:27;14.63;;;9.83;;
18933;SDS011;9599;53.706;10.384;2023-03-23T06:24:01;13.80;;;9.50;;
18933;SDS011;9599;53.706;10.384;2023-03-23T06:26:32;14.53;;;9.30;;
18933;SDS011;9599;53.706;10.384;2023-03-23T06:29:05;12.30;;;8.90;;
18933;SDS011;9599;53.706;10.384;2023-03-23T06:31:39;12.63;;;9.47;;
18933;SDS011;9599;53.706;10.384;2023-03-23T06:34:07;11.33;;;8.27;;
18933;SDS011;9599;53.706;10.384;2023-03-23T06:36:53;12.57;;;8.30;;
18933;SDS011;9599;53.706;10.384;2023-03-23T06:39:31;11.83;;;8.23;;
18933;SDS011;9599;53.706;10.384;2023-03-23T06:42:12;11.73;;;8.13;;
18933;SDS011;9599;53.706;10.384;2023-03-23T06:44:45;10.83;;;7.53;;
18933;SDS011;9599;53.706;10.384;2023-03-23T06:47:13;9.03;;;7.07;;
18933;SDS011;9599;53.706;10.384;2023-03-23T06:49:45;8.73;;;7.17;;
18933;SDS011;9599;53.706;10.384;2023-03-23T06:52:18;9.80;;;7.30;;
18933;SDS011;9599;53.706;10.384;2023-03-23T06:54:47;11.33;;;7.20;;
18933;SDS011;9599;53.706;10.384;2023-03-23T06:57:16;9.03;;;7.00;;
18933;SDS011;9599;53.706;10.384;2023-03-23T06:59:45;9.20;;;7.00;;
18933;SDS011;9599;53.706;10.384;2023-03-23T07:02:12;10.47;;;6.83;;
18933;SDS011;9599;53.706;10.384;2023-03-23T07:04:43;9.23;;;6.30;;
18933;SDS011;9599;53.706;10.384;2023-03-23T07:07:19;8.17;;;5.87;;
18933;SDS011;9599;53.706;10.384;2023-03-23T07:10:15;9.37;;;6.23;;
18933;SDS011;9599;53.706;10.384;2023-03-23T07:12:45;8.60;;;5.60;;
18933;SDS011;9599;53.706;10.384;2023-03-23T07:15:12;8.23;;;5.67;;
18933;SDS011;9599;53.706;10.384;2023-03-23T07:17:44;9.10;;;5.37;;
18933;SDS011;9599;53.706;10.384;2023-03-23T07:20:17;6.97;;;5.23;;
18933;SDS011;9599;53.706;10.384;2023-03-23T07:22:44;9.27;;;5.23;;
18933;SDS011;9599;53.706;10.384;2023-03-23T07:25:25;6.57;;;5.33;;
18933;SDS011;9599;53.706;10.384;2023-03-23T07:27:56;6.73;;;4.93;;
18933;SDS011;9599;53.706;10.384;2023-03-23T07:30:23;6.37;;;5.23;;
18933;SDS011;9599;53.706;10.384;2023-03-23T07:32:51;8.43;;;5.10;;
18933;SDS011;9599;53.706;10.384;2023-03-23T07:35:19;7.70;;;4.63;;
18933;SDS011;9599;53.706;10.384;2023-03-23T07:38:00;10.57;;;5.30;;
18933;SDS011;9599;53.706;10.384;2023-03-23T07:40:27;6.50;;;5.20;;
18933;SDS011;9599;53.706;10.384;2023-03-23T07:43:04;5.33;;;4.70;;
18933;SDS011;9599;53.706;10.384;2023-03-23T07:45:50;6.10;;;4.30;;
18933;SDS011;9599;53.706;10.384;2023-03-23T07:48:18;5.67;;;4.60;;
18933;SDS011;9599;53.706;10.384;2023-03-23T07:50:46;5.80;;;4.57;;
18933;SDS011;9599;53.706;10.384;2023-03-23T07:53:14;8.07;;;5.07;;
18933;SDS011;9599;53.706;10.384;2023-03-23T07:55:45;6.63;;;4.50;;
18933;SDS011;9599;53.706;10.384;2023-03-23T07:58:46;6.67;;;4.33;;
18933;SDS011;9599;53.706;10.384;2023-03-23T08:01:13;7.13;;;4.50;;
18933;SDS011;9599;53.706;10.384;2023-03-23T08:03:49;5.50;;;4.80;;
18933;SDS011;9599;53.706;10.384;2023-03-23T08:06:32;8.07;;;4.70;;
18933;SDS011;9599;53.706;10.384;2023-03-23T08:09:13;6.63;;;4.87;;
18933;SDS011;9599;53.706;10.384;2023-03-23T08:12:05;6.70;;;4.60;;
18933;SDS011;9599;53.706;10.384;2023-03-23T08:14:53;8.43;;;4.90;;
18933;SDS011;9599;53.706;10.384;2023-03-23T08:17:39;8.47;;;5.13;;
18933;SDS011;9599;53.706;10.384;2023-03-23T08:20:25;7.27;;;5.30;;
18933;SDS011;9599;53.706;10.384;2023-03-23T08:23:08;8.33;;;5.63;;
18933;SDS011;9599;53.706;10.384;2023-03-23T08:25:53;8.63;;;5.60;;
18933;SDS011;9599;53.706;10.384;2023-03-23T08:28:29;5.53;;;2.33;;
18933;SDS011;9599;53.706;10.384;2023-03-23T08:31:27;3.80;;;1.30;;
18933;SDS011;9599;53.706;10.384;2023-03-23T08:34:01;3.07;;;1.57;;
18933;SDS011;9599;53.706;10.384;2023-03-23T08:36:48;2.07;;;1.40;;
18933;SDS011;9599;53.706;10.384;2023-03-23T08:39:38;1.77;;;1.30;;
18933;SDS011;9599;53.706;10.384;2023-03-23T08:42:14;1.53;;;0.90;;
18933;SDS011;9599;53.706;10.384;2023-03-23T08:45:04;2.70;;;1.30;;
18933;SDS011;9599;53.706;10.384;2023-03-23T08:47:48;2.60;;;1.00;;
18933;SDS011;9599;53.706;10.384;2023-03-23T08:50:35;1.63;;;0.90;;
18933;SDS011;9599;53.706;10.384;2023-03-23T08:53:21;2.43;;;1.20;;
18933;SDS011;9599;53.706;10.384;2023-03-23T08:56:23;1.43;;;0.97;;
18933;SDS011;9599;53.706;10.384;2023-03-23T08:59:05;3.40;;;1.37;;
18933;SDS011;9599;53.706;10.384;2023-03-23T09:01:55;1.40;;;1.23;;
18933;SDS011;9599;53.706;10.384;2023-03-23T09:04:33;3.60;;;1.30;;
18933;SDS011;9599;53.706;10.384;2023-03-23T09:07:13;1.90;;;1.33;;
18933;SDS011;9599;53.706;10.384;2023-03-23T09:09:40;3.17;;;1.60;;
18933;SDS011;9599;53.706;10.384;2023-03-23T09:12:08;3.27;;;1.70;;
18933;SDS011;9599;53.706;10.384;2023-03-23T09:14:35;2.10;;;1.70;;
18933;SDS011;9599;53.706;10.384;2023-03-23T09:17:03;5.37;;;1.80;;
18933;SDS011;9599;53.706;10.384;2023-03-23T09:19:30;2.17;;;1.80;;
18933;SDS011;9599;53.706;10.384;2023-03-23T09:22:01;3.63;;;2.33;;
18933;SDS011;9599;53.706;10.384;2023-03-23T09:24:29;3.23;;;2.20;;
18933;SDS011;9599;53.706;10.384;2023-03-23T09:26:56;3.63;;;2.47;;
18933;SDS011;9599;53.706;10.384;2023-03-23T09:29:23;2.73;;;2.40;;
18933;SDS011;9599;53.706;10.384;2023-03-23T09:31:52;4.17;;;2.50;;
18933;SDS011;9599;53.706;10.384;2023-03-23T09:34:19;4.50;;;3.03;;
18933;SDS011;9599;53.706;10.384;2023-03-23T09:36:47;4.87;;;3.07;;
18933;SDS011;9599;53.706;10.384;2023-03-23T09:39:16;5.27;;;2.70;;
18933;SDS011;9599;53.706;10.384;2023-03-23T09:41:51;6.47;;;2.47;;
18933;SDS011;9599;53.706;10.384;2023-03-23T09:44:29;5.70;;;2.60;;
18933;SDS011;9599;53.706;10.384;2023-03-23T09:47:04;7.00;;;3.07;;
18933;SDS011;9599;53.706;10.384;2023-03-23T09:49:38;5.47;;;2.37;;
18933;SDS011;9599;53.706;10.384;2023-03-23T09:52:10;5.90;;;2.33;;
18933;SDS011;9599;53.706;10.384;2023-03-23T09:54:41;7.97;;;2.90;;
18933;SDS011;9599;53.706;10.384;2023-03-23T09:57:11;7.27;;;2.30;;
18933;SDS011;9599;53.706;10.384;2023-03-23T09:59:44;5.90;;;2.20;;
18933;SDS011;9599;53.706;10.384;2023-03-23T10:02:18;6.90;;;2.33;;
18933;SDS011;9599;53.706;10.384;2023-03-23T10:04:48;6.07;;;2.40;;
18933;SDS011;9599;53.706;10.384;2023-03-23T10:07:18;7.37;;;2.30;;
18933;SDS011;9599;53.706;10.384;2023-03-23T10:09:49;6.83;;;2.17;;
18933;SDS011;9599;53.706;10.384;2023-03-23T10:12:21;6.43;;;2.77;;
18933;SDS011;9599;53.706;10.384;2023-03-23T10:15:04;7.97;;;2.33;;
18933;SDS011;9599;53.706;10.384;2023-03-23T10:17:41;4.80;;;2.20;;
18933;SDS011;9599;53.706;10.384;2023-03-23T10:20:19;8.87;;;2.40;;
18933;SDS011;9599;53.706;10.384;2023-03-23T10:22:56;6.60;;;2.07;;
18933;SDS011;9599;53.706;10.384;2023-03-23T10:25:31;6.17;;;2.20;;
18933;SDS011;9599;53.706;10.384;2023-03-23T10:28:02;4.50;;;2.07;;
18933;SDS011;9599;53.706;10.384;2023-03-23T10:30:33;7.20;;;2.20;;
18933;SDS011;9599;53.706;10.384;2023-03-23T10:33:03;5.30;;;2.00;;
18933;SDS011;9599;53.706;10.384;2023-03-23T10:35:39;8.30;;;2.00;;
18933;SDS011;9599;53.706;10.384;2023-03-23T10:38:13;5.80;;;2.23;;
18933;SDS011;9599;53.706;10.384;2023-03-23T10:40:48;6.87;;;2.30;;
18933;SDS011;9599;53.706;10.384;2023-03-23T10:43:19;9.63;;;2.53;;
18933;SDS011;9599;53.706;10.384;2023-03-23T10:45:48;7.93;;;1.90;;
18933;SDS011;9599;53.706;10.384;2023-03-23T10:48:22;6.50;;;2.10;;
18933;SDS011;9599;53.706;10.384;2023-03-23T10:50:54;6.80;;;2.03;;
18933;SDS011;9599;53.706;10.384;2023-03-23T10:53:25;6.97;;;2.33;;
18933;SDS011;9599;53.706;10.384;2023-03-23T10:55:58;6.13;;;2.00;;
18933;SDS011;9599;53.706;10.384;2023-03-23T10:58:27;7.57;;;1.87;;
18933;SDS011;9599;53.706;10.384;2023-03-23T11:00:55;6.57;;;2.10;;
18933;SDS011;9599;53.706;10.384;2023-03-23T11:03:24;6.20;;;2.00;;
18933;SDS011;9599;53.706;10.384;2023-03-23T11:05:58;7.77;;;2.27;;
18933;SDS011;9599;53.706;10.384;2023-03-23T11:08:30;7.87;;;2.40;;
18933;SDS011;9599;53.706;10.384;2023-03-23T11:11:09;6.57;;;2.00;;
18933;SDS011;9599;53.706;10.384;2023-03-23T11:13:39;8.37;;;2.43;;
18933;SDS011;9599;53.706;10.384;2023-03-23T11:16:08;6.43;;;2.00;;
18933;SDS011;9599;53.706;10.384;2023-03-23T11:18:37;7.83;;;2.37;;
18933;SDS011;9599;53.706;10.384;2023-03-23T11:21:05;7.03;;;2.13;;
18933;SDS011;9599;53.706;10.384;2023-03-23T11:23:35;8.33;;;2.27;;
18933;SDS011;9599;53.706;10.384;2023-03-23T11:26:12;6.73;;;2.00;;
18933;SDS011;9599;53.706;10.384;2023-03-23T11:28:43;8.37;;;2.30;;
18933;SDS011;9599;53.706;10.384;2023-03-23T11:31:12;7.77;;;2.20;;
18933;SDS011;9599;53.706;10.384;2023-03-23T11:33:45;6.93;;;2.33;;
18933;SDS011;9599;53.706;10.384;2023-03-23T11:36:17;7.30;;;2.30;;
18933;SDS011;9599;53.706;10.384;2023-03-23T11:38:44;5.53;;;2.00;;
18933;SDS011;9599;53.706;10.384;2023-03-23T11:41:17;8.27;;;2.43;;
18933;SDS011;9599;53.706;10.384;2023-03-23T11:43:46;5.53;;;1.93;;
18933;SDS011;9599;53.706;10.384;2023-03-23T11:46:17;8.43;;;2.10;;
18933;SDS011;9599;53.706;10.384;2023-03-23T11:48:56;7.80;;;2.20;;
18933;SDS011;9599;53.706;10.384;2023-03-23T11:51:27;6.43;;;1.90;;
18933;SDS011;9599;53.706;10.384;2023-03-23T11:54:00;7.97;;;2.07;;
18933;SDS011;9599;53.706;10.384;2023-03-23T11:56:36;7.87;;;2.00;;
18933;SDS011;9599;53.706;10.384;2023-03-23T11:59:09;6.27;;;2.00;;
18933;SDS011;9599;53.706;10.384;2023-03-23T12:01:47;8.80;;;2.70;;
18933;SDS011;9599;53.706;10.384;2023-03-23T12:04:21;6.10;;;2.00;;
18933;SDS011;9599;53.706;10.384;2023-03-23T12:10:20;6.03;;;2.00;;
18933;SDS011;9599;53.706;10.384;2023-03-23T12:13:02;7.03;;;1.90;;
18933;SDS011;9599;53.706;10.384;2023-03-23T12:15:40;7.50;;;2.00;;
18933;SDS011;9599;53.706;10.384;2023-03-23T12:18:14;7.53;;;2.10;;
18933;SDS011;9599;53.706;10.384;2023-03-23T12:20:50;7.37;;;2.40;;
18933;SDS011;9599;53.706;10.384;2023-03-23T12:23:23;7.70;;;2.43;;
18933;SDS011;9599;53.706;10.384;2023-03-23T12:25:59;7.40;;;2.17;;
18933;SDS011;9599;53.706;10.384;2023-03-23T12:28:53;7.33;;;1.90;;
18933;SDS011;9599;53.706;10.384;2023-03-23T12:31:49;10.43;;;2.43;;
18933;SDS011;9599;53.706;10.384;2023-03-23T12:34:28;6.93;;;2.37;;
18933;SDS011;9599;53.706;10.384;2023-03-23T12:37:08;6.03;;;2.60;;
18933;SDS011;9599;53.706;10.384;2023-03-23T12:39:50;6.67;;;3.20;;
18933;SDS011;9599;53.706;10.384;2023-03-23T12:42:37;8.10;;;3.20;;
18933;SDS011;9599;53.706;10.384;2023-03-23T12:45:14;10.00;;;3.70;;
18933;SDS011;9599;53.706;10.384;2023-03-23T12:47:49;8.33;;;3.67;;
18933;SDS011;9599;53.706;10.384;2023-03-23T12:50:23;8.00;;;3.30;;
18933;SDS011;9599;53.706;10.384;2023-03-23T12:52:55;8.57;;;3.43;;
18933;SDS011;9599;53.706;10.384;2023-03-23T12:55:27;7.80;;;3.70;;
18933;SDS011;9599;53.706;10.384;2023-03-23T12:58:02;6.73;;;3.43;;
18933;SDS011;9599;53.706;10.384;2023-03-23T13:00:48;9.07;;;3.33;;
18933;SDS011;9599;53.706;10.384;2023-03-23T13:03:21;9.00;;;3.73;;
18933;SDS011;9599;53.706;10.384;2023-03-23T13:05:57;8.97;;;3.57;;
18933;SDS011;9599;53.706;10.384;2023-03-23T13:08:30;8.67;;;3.70;;
18933;SDS011;9599;53.706;10.384;2023-03-23T13:11:03;9.07;;;3.70;;
18933;SDS011;9599;53.706;10.384;2023-03-23T13:13:41;11.27;;;4.10;;
18933;SDS011;9599;53.706;10.384;2023-03-23T13:16:14;7.53;;;3.73;;
18933;SDS011;9599;53.706;10.384;2023-03-23T13:18:49;11.93;;;3.93;;
18933;SDS011;9599;53.706;10.384;2023-03-23T13:21:26;7.17;;;3.73;;
18933;SDS011;9599;53.706;10.384;2023-03-23T13:23:57;10.37;;;3.73;;
18933;SDS011;9599;53.706;10.384;2023-03-23T13:26:28;11.80;;;4.13;;
18933;SDS011;9599;53.706;10.384;2023-03-23T13:28:56;8.80;;;3.80;;
18933;SDS011;9599;53.706;10.384;2023-03-23T13:31:29;8.70;;;3.80;;
18933;SDS011;9599;53.706;10.384;2023-03-23T13:34:00;7.57;;;3.43;;
18933;SDS011;9599;53.706;10.384;2023-03-23T13:36:31;9.40;;;3.90;;
18933;SDS011;9599;53.706;10.384;2023-03-23T13:39:04;8.07;;;3.70;;
18933;SDS011;9599;53.706;10.384;2023-03-23T13:41:34;8.90;;;4.33;;
18933;SDS011;9599;53.706;10.384;2023-03-23T13:44:17;7.13;;;4.20;;
18933;SDS011;9599;53.706;10.384;2023-03-23T13:47:04;6.47;;;3.43;;
18933;SDS011;9599;53.706;10.384;2023-03-23T13:49:44;7.00;;;3.40;;
18933;SDS011;9599;53.706;10.384;2023-03-23T13:52:17;11.73;;;4.23;;
18933;SDS011;9599;53.706;10.384;2023-03-23T13:54:48;8.87;;;3.77;;
18933;SDS011;9599;53.706;10.384;2023-03-23T13:57:21;6.37;;;3.50;;
18933;SDS011;9599;53.706;10.384;2023-03-23T13:59:55;5.17;;;3.40;;
18933;SDS011;9599;53.706;10.384;2023-03-23T14:02:29;5.83;;;3.10;;
18933;SDS011;9599;53.706;10.384;2023-03-23T14:05:08;7.57;;;3.40;;
18933;SDS011;9599;53.706;10.384;2023-03-23T14:07:54;7.80;;;3.37;;
18933;SDS011;9599;53.706;10.384;2023-03-23T14:10:25;6.27;;;3.10;;
18933;SDS011;9599;53.706;10.384;2023-03-23T14:12:58;7.10;;;3.10;;
18933;SDS011;9599;53.706;10.384;2023-03-23T14:15:28;1.73;;;0.93;;
18933;SDS011;9599;53.706;10.384;2023-03-23T14:17:57;3.67;;;1.20;;
18933;SDS011;9599;53.706;10.384;2023-03-23T14:20:31;4.40;;;1.50;;
18933;SDS011;9599;53.706;10.384;2023-03-23T14:23:00;4.50;;;1.63;;
18933;SDS011;9599;53.706;10.384;2023-03-23T14:25:29;3.90;;;1.47;;
18933;SDS011;9599;53.706;10.384;2023-03-23T14:27:57;3.73;;;1.40;;
18933;SDS011;9599;53.706;10.384;2023-03-23T14:30:25;2.37;;;1.10;;
18933;SDS011;9599;53.706;10.384;2023-03-23T14:33:04;4.70;;;1.40;;
18933;SDS011;9599;53.706;10.384;2023-03-23T14:35:34;5.30;;;1.80;;
18933;SDS011;9599;53.706;10.384;2023-03-23T14:38:03;4.60;;;1.70;;
18933;SDS011;9599;53.706;10.384;2023-03-23T14:40:31;3.93;;;1.70;;
18933;SDS011;9599;53.706;10.384;2023-03-23T14:43:00;3.13;;;1.77;;
18933;SDS011;9599;53.706;10.384;2023-03-23T14:45:27;3.70;;;1.60;;
18933;SDS011;9599;53.706;10.384;2023-03-23T14:47:56;5.40;;;1.90;;
18933;SDS011;9599;53.706;10.384;2023-03-23T14:50:28;2.87;;;1.63;;
18933;SDS011;9599;53.706;10.384;2023-03-23T14:52:57;3.10;;;1.40;;
18933;SDS011;9599;53.706;10.384;2023-03-23T14:55:26;2.43;;;1.63;;
18933;SDS011;9599;53.706;10.384;2023-03-23T14:57:56;2.17;;;1.70;;
18933;SDS011;9599;53.706;10.384;2023-03-23T15:00:33;3.10;;;1.90;;
18933;SDS011;9599;53.706;10.384;2023-03-23T15:03:09;8.63;;;4.23;;
18933;SDS011;9599;53.706;10.384;2023-03-23T15:05:42;5.20;;;2.00;;
18933;SDS011;9599;53.706;10.384;2023-03-23T15:08:12;3.37;;;1.97;;
18933;SDS011;9599;53.706;10.384;2023-03-23T15:10:41;2.40;;;1.80;;
18933;SDS011;9599;53.706;10.384;2023-03-23T15:13:10;4.40;;;2.50;;
18933;SDS011;9599;53.706;10.384;2023-03-23T15:15:38;3.27;;;1.67;;
18933;SDS011;9599;53.706;10.384;2023-03-23T15:18:14;4.40;;;2.00;;
18933;SDS011;9599;53.706;10.384;2023-03-23T15:20:57;3.00;;;1.83;;
18933;SDS011;9599;53.706;10.384;2023-03-23T15:23:33;3.07;;;1.80;;
18933;SDS011;9599;53.706;10.384;2023-03-23T15:26:02;4.40;;;1.70;;